createdAt,value
2023-03-26T00:00:46.252Z,22.6
2023-03-26T00:06:38.519Z,22.6
2023-03-26T00:12:13.715Z,22
2023-03-26T00:17:51.691Z,21.8
2023-03-26T00:23:43.809Z,21.8
2023-03-26T00:29:34.669Z,21.8
2023-03-26T00:35:10.597Z,21.6
2023-03-26T00:41:07.038Z,21.6
2023-03-26T00:46:28.066Z,21.5
2023-03-26T00:52:30.084Z,22.3
2023-03-26T00:58:38.467Z,23.1
2023-03-26T01:04:31.383Z,22.1
2023-03-26T01:10:23.406Z,21.9
2023-03-26T01:16:00.015Z,21.6
2023-03-26T01:21:36.036Z,21.4
2023-03-26T01:27:26.932Z,21.3
2023-03-26T01:33:03.630Z,21.3
2023-03-26T01:38:55.988Z,21.4
2023-03-26T01:44:47.019Z,22.3
2023-03-26T01:50:39.468Z,23.1
2023-03-26T01:56:30.621Z,22.3
2023-03-26T02:02:07.142Z,21.9
2023-03-26T02:07:28.741Z,21.6
2023-03-26T02:13:30.249Z,21.4
2023-03-26T02:19:22.161Z,21.4
2023-03-26T02:24:58.585Z,21.3
2023-03-26T02:30:49.638Z,21.1
2023-03-26T02:36:27.992Z,21.9
2023-03-26T02:42:04.577Z,23.1
2023-03-26T02:47:56.526Z,22.3
2023-03-26T02:53:47.941Z,21.9
2023-03-26T02:59:39.266Z,21.6
2023-03-26T03:05:16.818Z,21.4
2023-03-26T03:10:37.445Z,21.3
2023-03-26T03:16:14.324Z,21.2
2023-03-26T03:26:55.386Z,21.5
2023-03-26T03:32:31.645Z,22.5
2023-03-26T03:38:32.641Z,22.3
2023-03-26T03:44:08.649Z,21.8
2023-03-26T03:49:14.253Z,21.6
2023-03-26T03:54:34.573Z,21.4
2023-03-26T03:59:54.905Z,21.3
2023-03-26T04:05:46.458Z,21.3
2023-03-26T04:11:22.523Z,21.2
2023-03-26T04:22:19.840Z,22.6
2023-03-26T04:27:55.201Z,23
2023-03-26T04:33:16.208Z,22.3
2023-03-26T04:38:52.706Z,23.1
2023-03-26T04:44:28.892Z,24.1
2023-03-26T04:50:05.996Z,23.8
2023-03-26T04:55:27.186Z,22.6
2023-03-26T05:01:26.962Z,22.6
2023-03-26T05:07:19.095Z,23.6
2023-03-26T05:13:11.523Z,23.4
2023-03-26T05:18:48.540Z,22.6
2023-03-26T05:24:40.369Z,21.9
2023-03-26T05:30:31.562Z,21.6
2023-03-26T05:36:23.590Z,21.3
2023-03-26T05:47:52.407Z,20.9
2023-03-26T05:53:44.160Z,20.9
2023-03-26T05:59:35.463Z,20.9
2023-03-26T06:05:28.758Z,20.7
2023-03-26T06:11:30.405Z,20.7
2023-03-26T06:17:33.497Z,20.6
2023-03-26T06:23:27.289Z,20.4
2023-03-26T06:29:18.596Z,20.4
2023-03-26T06:35:20.748Z,20.3
2023-03-26T06:41:21.232Z,20.3
2023-03-26T06:47:54.035Z,20.2
2023-03-26T06:53:45.614Z,20.1
2023-03-26T06:59:37.138Z,20
2023-03-26T07:05:14.192Z,19.9
2023-03-26T07:10:53.746Z,19.9
2023-03-26T07:16:30.502Z,19.8
2023-03-26T07:22:21.988Z,19.7
2023-03-26T07:28:13.150Z,19.8
2023-03-26T07:34:23.986Z,19.8
2023-03-26T07:40:17.114Z,19.7
2023-03-26T07:45:55.608Z,19.7
2023-03-26T07:51:47.484Z,19.6
2023-03-26T07:57:39.467Z,19.6
2023-03-26T08:03:15.282Z,19.5
2023-03-26T08:09:11.799Z,19.5
2023-03-26T08:14:47.053Z,19.4
2023-03-26T08:20:23.111Z,19.4
2023-03-26T08:25:31.408Z,19.4
2023-03-26T08:31:07.003Z,19.3
2023-03-26T08:36:43.415Z,19.3
2023-03-26T08:42:20.823Z,19.2
2023-03-26T08:48:11.564Z,19.3
2023-03-26T08:53:47.997Z,19.1
2023-03-26T08:59:42.508Z,19.2
2023-03-26T09:05:06.058Z,19.2
2023-03-26T09:11:14.032Z,19.1
2023-03-26T09:17:06.356Z,19
2023-03-26T09:22:58.764Z,18.9
2023-03-26T09:28:50.029Z,18.9
2023-03-26T09:34:42.255Z,18.9
2023-03-26T09:40:41.030Z,19
2023-03-26T09:46:32.231Z,19
2023-03-26T09:52:25.077Z,18.8
2023-03-26T09:58:18.343Z,18.8
2023-03-26T10:04:25.814Z,18.8
2023-03-26T10:10:17.097Z,18.9
2023-03-26T10:15:59.513Z,18.9
2023-03-26T10:22:04.381Z,18.9
2023-03-26T10:28:15.715Z,18.9
2023-03-26T10:34:06.692Z,19
2023-03-26T10:40:26.911Z,18.8
2023-03-26T10:46:32.610Z,18.8
2023-03-26T10:52:23.169Z,18.8
2023-03-26T10:58:15.172Z,18.8
2023-03-26T11:04:25.581Z,18.8
2023-03-26T11:10:10.637Z,18.9
2023-03-26T11:16:35.657Z,18.8
2023-03-26T11:22:58.581Z,18.9
2023-03-26T11:29:31.955Z,18.9
2023-03-26T11:35:40.046Z,18.9
2023-03-26T11:41:22.618Z,18.9
2023-03-26T11:47:14.399Z,19
2023-03-26T11:53:06.184Z,19
2023-03-26T11:59:17.883Z,19.1
2023-03-26T12:05:21.364Z,19.1
2023-03-26T12:11:07.946Z,19
2023-03-26T12:16:59.532Z,18.9
2023-03-26T12:22:51.030Z,18.9
2023-03-26T12:28:42.984Z,19
2023-03-26T12:34:26.568Z,18.9
2023-03-26T12:42:36.766Z,18.9
2023-03-26T12:52:46.872Z,18.8
2023-03-26T12:59:19.392Z,18.9
2023-03-26T13:05:22.923Z,18.9
2023-03-26T13:11:31.778Z,18.9
2023-03-26T13:17:22.739Z,18.9
2023-03-26T13:23:15.637Z,18.9
2023-03-26T13:29:07.980Z,18.9
2023-03-26T13:35:00.137Z,18.9
2023-03-26T13:41:11.284Z,18.9
2023-03-26T13:47:16.347Z,18.8
2023-03-26T13:53:08.211Z,18.9
2023-03-26T13:59:06.937Z,19
2023-03-26T14:04:59.952Z,18.9
2023-03-26T14:10:51.517Z,18.9
2023-03-26T14:16:50.595Z,19
2023-03-26T14:22:44.020Z,19
2023-03-26T14:28:20.445Z,19
2023-03-26T14:34:03.400Z,19
2023-03-26T14:39:56.283Z,19.1
2023-03-26T14:45:53.721Z,19.1
2023-03-26T14:51:46.339Z,19.1
2023-03-26T14:57:47.245Z,19.1
2023-03-26T15:03:48.251Z,19.1
2023-03-26T15:09:39.860Z,19.2
2023-03-26T15:15:53.974Z,19.2
2023-03-26T15:21:47.636Z,19.2
2023-03-26T15:27:38.336Z,19.3
2023-03-26T15:33:31.098Z,19.3
2023-03-26T15:39:21.857Z,19.2
2023-03-26T15:45:39.834Z,19.2
2023-03-26T15:51:32.756Z,19.2
2023-03-26T15:57:38.737Z,19.3
2023-03-26T16:03:29.682Z,19.3
2023-03-26T16:09:22.447Z,19.3
2023-03-26T16:14:58.137Z,19.3
2023-03-26T16:20:49.690Z,19.3
2023-03-26T16:27:23.550Z,19.3
2023-03-26T16:33:31.978Z,19.3
2023-03-26T16:39:23.008Z,19.3
2023-03-26T16:45:24.905Z,18.2
2023-03-26T16:51:30.920Z,18.8
2023-03-26T16:57:21.898Z,19
2023-03-26T17:03:09.583Z,19.1
2023-03-26T17:08:54.254Z,19.1
2023-03-26T17:14:30.526Z,19.1
2023-03-26T17:20:08.033Z,19.1
2023-03-26T17:25:59.474Z,19.1
2023-03-26T17:31:35.606Z,19.1
2023-03-26T17:37:28.410Z,19.1
2023-03-26T17:43:04.146Z,19.1
2023-03-26T17:49:03.096Z,19.1
2023-03-26T17:54:56.781Z,19.1
2023-03-26T18:00:50.651Z,19.1
2023-03-26T18:06:26.852Z,19.1
2023-03-26T18:12:19.389Z,19.1
2023-03-26T18:18:13.236Z,19.1
2023-03-26T18:24:04.257Z,18.9
2023-03-26T18:29:57.387Z,18.8
2023-03-26T18:35:38.872Z,18.8
2023-03-26T18:41:38.680Z,18.9
2023-03-26T18:48:03.678Z,18.9
2023-03-26T18:53:37.974Z,18.9
2023-03-26T18:59:28.253Z,18.9
2023-03-26T19:05:20.249Z,18.9
2023-03-26T19:11:11.011Z,18.9
2023-03-26T19:17:03.051Z,18.9
2023-03-26T19:22:59.211Z,18.9
2023-03-26T19:28:35.817Z,18.9
2023-03-26T19:34:35.243Z,18.9
2023-03-26T19:40:42.855Z,19
2023-03-26T19:46:18.279Z,19
2023-03-26T19:53:09.163Z,19
2023-03-26T19:59:13.563Z,18.9
2023-03-26T20:04:55.658Z,19
2023-03-26T20:11:14.779Z,18.9
2023-03-26T20:17:29.053Z,18.9
2023-03-26T20:23:21.989Z,18.9
2023-03-26T20:29:22.354Z,18.9
2023-03-26T20:35:52.832Z,18.9
2023-03-26T20:41:57.961Z,18.9
2023-03-26T20:47:53.034Z,18.9
2023-03-26T20:53:36.770Z,18.9
2023-03-26T20:59:44.957Z,18.9
2023-03-26T21:05:37.122Z,18.9
2023-03-26T21:11:44.112Z,18.9
2023-03-26T21:17:50.944Z,18.9
2023-03-26T21:23:33.514Z,18.9
2023-03-26T21:29:31.721Z,18.9
2023-03-26T21:34:59.404Z,18.9
2023-03-26T21:40:58.247Z,19
2023-03-26T21:47:07.766Z,19
2023-03-26T21:53:03.827Z,18.9
2023-03-26T21:58:24.507Z,18.9
2023-03-26T22:04:04.086Z,18.9
2023-03-26T22:10:08.313Z,18.9
2023-03-26T22:15:59.592Z,18.9
2023-03-26T22:21:51.804Z,18.9
2023-03-26T22:27:43.929Z,18.9
2023-03-26T22:33:23.329Z,18.9
2023-03-26T22:39:25.068Z,19
2023-03-26T22:45:25.115Z,19
2023-03-26T22:51:06.954Z,19
2023-03-26T22:57:08.007Z,19
2023-03-26T23:03:02.562Z,19
2023-03-26T23:08:44.413Z,19
2023-03-26T23:14:36.484Z,19
2023-03-26T23:20:38.766Z,19
2023-03-26T23:26:14.989Z,19
2023-03-26T23:32:23.316Z,19
2023-03-26T23:38:26.694Z,19
2023-03-26T23:44:42.375Z,19
2023-03-26T23:50:34.868Z,19
2023-03-26T23:56:26.267Z,19
